Time;durP1;ratioP1;P1;durP2;ratioP2;P2;SDS_P1;SDS_P2;PMS_P1;PMS_P2;Temp;Humidity;BMP_temperature;BMP_pressure;BME280_temperature;BME280_humidity;BME280_pressure;Samples;Min_cycle;Max_cycle;Signal;HPM_P1;HPM_P2
2022/11/15 00:00:54;;;;;;;1999.90;999.90;;;11.30;99.90;;;;;;5094603;28;20039;-75
2022/11/15 00:03:23;;;;;;;1999.90;999.90;;;11.20;99.90;;;;;;5095087;28;20036;-75
2022/11/15 00:05:49;;;;;;;1999.90;999.90;;;11.20;99.90;;;;;;5093930;28;20036;-75
2022/11/15 00:08:15;;;;;;;1999.90;999.90;;;11.20;1.00;;;;;;5094876;28;20044;-76
2022/11/15 00:10:41;;;;;;;1999.90;999.90;;;11.20;1.00;;;;;;5094188;28;20042;-76
2022/11/15 00:13:11;;;;;;;1999.90;999.90;;;11.40;1.00;;;;;;5094152;28;20060;-77
2022/11/15 00:15:41;;;;;;;1999.90;999.90;;;11.50;8.00;;;;;;5093235;28;20048;-81
2022/11/15 00:18:13;;;;;;;1999.90;999.90;;;11.10;46.40;;;;;;5095090;28;20055;-77
2022/11/15 00:20:39;;;;;;;1999.90;999.90;;;11.60;84.00;;;;;;5110722;28;20098;-77
2022/11/15 00:23:05;;;;;;;1999.90;999.90;;;11.20;67.30;;;;;;5095215;28;20047;-77
2022/11/15 00:25:31;;;;;;;1999.90;999.90;;;11.30;65.30;;;;;;5093804;28;20040;-77
2022/11/15 00:27:57;;;;;;;1999.90;999.90;;;11.30;83.00;;;;;;5095311;28;20094;-78
2022/11/15 00:30:23;;;;;;;1999.90;999.90;;;11.30;68.00;;;;;;5092885;28;20048;-78
2022/11/15 00:32:49;;;;;;;1999.90;999.90;;;11.40;41.70;;;;;;5093676;28;20123;-77
2022/11/15 00:35:15;;;;;;;1580.90;760.92;;;11.40;37.20;;;;;;5094912;28;20090;-78
2022/11/15 00:37:41;;;;;;;1999.90;999.90;;;11.20;1.00;;;;;;5093404;28;20071;-78
2022/11/15 00:40:07;;;;;;;1999.90;999.90;;;11.60;1.00;;;;;;5093329;28;20090;-77
2022/11/15 00:42:33;;;;;;;1999.90;999.90;;;11.60;1.00;;;;;;5093630;28;20043;-78
2022/11/15 00:44:58;;;;;;;1999.90;999.90;;;11.60;1.00;;;;;;5093996;28;20048;-77
2022/11/15 00:47:24;;;;;;;1999.90;999.90;;;11.60;1.00;;;;;;5094667;28;20521;-83
2022/11/15 00:49:50;;;;;;;1999.90;999.90;;;11.60;1.00;;;;;;5093918;28;20130;-77
2022/11/15 00:52:15;;;;;;;1999.90;999.90;;;11.60;99.90;;;;;;5093137;28;20052;-78
2022/11/15 00:54:41;;;;;;;1999.90;999.90;;;13.10;99.90;;;;;;5093254;28;20380;-77
2022/11/15 00:57:07;;;;;;;1999.90;999.90;;;11.60;99.90;;;;;;5093470;28;20112;-78
2022/11/15 00:59:32;;;;;;;1999.90;999.90;;;11.60;99.90;;;;;;5093887;28;20047;-77
2022/11/15 01:01:58;;;;;;;1999.90;999.90;;;11.60;99.90;;;;;;5091503;28;20051;-78
2022/11/15 01:04:24;;;;;;;1999.90;999.90;;;11.60;99.90;;;;;;5093532;28;20047;-77
2022/11/15 01:06:49;;;;;;;1999.90;999.90;;;11.60;99.90;;;;;;5093820;28;20048;-77
2022/11/15 01:09:15;;;;;;;1999.90;999.90;;;11.60;99.90;;;;;;5093839;28;20119;-77
2022/11/15 01:11:40;;;;;;;1999.90;999.90;;;11.60;99.90;;;;;;5093860;28;20098;-77
2022/11/15 01:14:06;;;;;;;1999.90;999.90;;;11.60;99.90;;;;;;5094278;28;20047;-76
2022/11/15 01:16:33;;;;;;;1999.90;999.90;;;11.60;99.90;;;;;;5108842;28;20036;-82
2022/11/15 01:18:59;;;;;;;1999.90;999.90;;;11.60;99.90;;;;;;5092578;28;20483;-78
2022/11/15 01:21:25;;;;;;;1999.90;999.90;;;12.10;99.90;;;;;;5093132;28;20050;-77
2022/11/15 01:23:55;;;;;;;1999.90;999.90;;;12.70;99.90;;;;;;5109278;28;20135;-77
2022/11/15 01:26:21;;;;;;;1999.90;999.90;;;11.60;99.90;;;;;;5092935;28;20036;-77
2022/11/15 01:28:47;;;;;;;1999.90;999.90;;;12.50;99.90;;;;;;5093613;28;20044;-78
2022/11/15 01:31:17;;;;;;;1999.90;999.90;;;11.60;99.90;;;;;;5092946;28;20043;-77
2022/11/15 01:33:43;;;;;;;1999.90;999.90;;;12.30;99.90;;;;;;5093420;28;20066;-77
2022/11/15 01:36:15;;;;;;;1999.90;999.90;;;11.50;99.90;;;;;;5075443;28;20348;-77
2022/11/15 01:38:41;;;;;;;1999.90;999.90;;;11.60;99.90;;;;;;5092092;28;20452;-77
2022/11/15 01:41:15;;;;;;;1999.90;999.90;;;11.50;99.90;;;;;;5109860;28;20050;-77
2022/11/15 01:43:40;;;;;;;1999.90;999.90;;;12.00;99.90;;;;;;5092095;28;20063;-77
2022/11/15 01:46:14;;;;;;;1999.90;999.90;;;11.70;99.90;;;;;;5108959;28;20409;-76
2022/11/15 01:48:40;;;;;;;1999.90;999.90;;;11.50;99.90;;;;;;5091895;28;20464;-77
2022/11/15 01:51:10;;;;;;;1999.90;999.90;;;11.50;99.90;;;;;;5092937;28;20083;-76
2022/11/15 01:53:38;;;;;;;1999.90;999.90;;;11.50;99.90;;;;;;5092882;28;20079;-76
2022/11/15 01:56:08;;;;;;;1999.90;999.90;;;11.50;99.90;;;;;;5093102;28;20472;-76
2022/11/15 01:58:35;;;;;;;1999.90;999.90;;;11.60;99.90;;;;;;5093315;28;20096;-86
2022/11/15 02:01:00;;;;;;;1999.90;999.90;;;11.50;99.90;;;;;;5092658;28;20097;-76
2022/11/15 02:03:48;;;;;;;1999.90;999.90;;;11.60;99.90;;;;;;5092105;28;20519;-76
2022/11/15 02:06:14;;;;;;;1999.90;999.90;;;11.50;99.90;;;;;;5091261;28;20082;-76
2022/11/15 02:08:41;;;;;;;1999.90;999.90;;;11.50;99.90;;;;;;5091909;28;20047;-76
2022/11/15 02:11:11;;;;;;;1999.90;999.90;;;11.50;99.90;;;;;;5092594;28;20047;-76
2022/11/15 02:13:37;;;;;;;1999.90;999.90;;;11.60;99.90;;;;;;5090867;28;20407;-83
2022/11/15 02:16:35;;;;;;;1999.90;999.90;;;11.60;99.90;;;;;;5091925;28;20044;-76
2022/11/15 02:19:32;;;;;;;1999.90;999.90;;;11.50;99.90;;;;;;5092091;28;20040;-77
2022/11/15 02:22:13;;;;;;;1999.90;999.90;;;11.60;99.90;;;;;;5091712;28;20044;-80
2022/11/15 02:25:03;;;;;;;1999.90;999.90;;;11.60;99.90;;;;;;5092113;28;20036;-77
2022/11/15 02:27:53;;;;;;;1999.90;999.90;;;11.60;99.90;;;;;;5092624;28;20086;-76
2022/11/15 02:30:34;;;;;;;1999.90;999.90;;;11.60;99.90;;;;;;5092663;28;20052;-76
2022/11/15 02:33:26;;;;;;;1999.90;999.90;;;11.60;99.90;;;;;;5090828;28;20134;-78
2022/11/15 02:36:08;;;;;;;1999.90;999.90;;;11.60;99.90;;;;;;5091697;28;20614;-76
2022/11/15 02:38:55;;;;;;;1999.90;999.90;;;11.60;99.90;;;;;;5092269;28;20043;-77
2022/11/15 02:41:30;;;;;;;1999.90;999.90;;;11.60;99.90;;;;;;5092577;28;20037;-77
2022/11/15 02:44:32;;;;;;;1999.90;999.90;;;11.60;99.90;;;;;;5073932;28;20055;-77
2022/11/15 02:47:13;;;;;;;1999.90;999.90;;;11.60;99.90;;;;;;5091891;28;20449;-77
2022/11/15 02:49:50;;;;;;;1999.90;999.90;;;11.60;99.90;;;;;;5090549;28;20051;-85
2022/11/15 02:52:20;;;;;;;1999.90;999.90;;;13.40;1.00;;;;;;5091604;28;20040;-78
2022/11/15 02:54:56;;;;;;;1999.90;999.90;;;11.70;1.00;;;;;;5091896;28;20056;-77
2022/11/15 02:57:52;;;;;;;1999.90;999.90;;;11.70;1.00;;;;;;5091745;28;20051;-77
2022/11/15 03:00:19;;;;;;;1999.90;999.90;;;11.70;1.00;;;;;;5091733;28;20511;-77
2022/11/15 03:02:45;;;;;;;1999.90;999.90;;;11.70;1.00;;;;;;5090929;28;20110;-77
2022/11/15 03:05:27;;;;;;;1999.90;999.90;;;11.70;1.00;;;;;;5091397;28;20087;-79
2022/11/15 03:08:02;;;;;;;1999.90;999.90;;;11.70;1.00;;;;;;5091842;28;20059;-77
2022/11/15 03:10:58;;;;;;;1999.90;999.90;;;11.70;1.00;;;;;;5091484;28;20101;-80
2022/11/15 03:13:37;;;;;;;1999.90;999.90;;;11.70;1.00;;;;;;5092180;28;20044;-78
2022/11/15 03:16:09;;;;;;;1999.90;999.90;;;11.80;1.00;;;;;;5091206;28;20055;-78
2022/11/15 03:18:40;;;;;;;1999.90;999.90;;;11.80;1.00;;;;;;5090574;28;20080;-78
2022/11/15 03:21:08;;;;;;;1999.90;999.90;;;11.80;1.00;;;;;;5090872;28;20056;-78
2022/11/15 03:23:36;;;;;;;1999.90;999.90;;;11.80;32.40;;;;;;5074047;28;20047;-77
2022/11/15 03:26:04;;;;;;;1999.90;999.90;;;11.80;68.40;;;;;;5092190;28;20044;-77
2022/11/15 03:28:40;;;;;;;1999.90;999.90;;;11.80;63.60;;;;;;5111739;28;20048;-77
2022/11/15 03:33:55;;;;;;;1999.90;999.90;;;11.80;99.90;;;;;;5095782;28;20086;-77
2022/11/15 03:36:24;;;;;;;1999.90;999.90;;;11.90;99.90;;;;;;5095815;28;20048;-77
2022/11/15 03:38:54;;;;;;;1999.90;999.90;;;11.90;99.90;;;;;;5095490;28;20044;-78
2022/11/15 03:41:29;;;;;;;1999.90;999.90;;;11.90;99.90;;;;;;5095673;28;20100;-77
2022/11/15 03:44:27;;;;;;;1999.90;999.90;;;12.10;99.90;;;;;;5111879;28;20044;-78
2022/11/15 03:47:17;;;;;;;1999.90;999.90;;;12.00;99.90;;;;;;5094060;28;20485;-77
2022/11/15 03:49:46;;;;;;;;;;;12.00;99.90;;;;;;5096132;28;20102;-77
2022/11/15 03:52:12;;;;;;;1999.90;999.90;;;12.00;99.90;;;;;;5095958;28;19920;-77
2022/11/15 03:54:52;;;;;;;1999.90;999.90;;;12.00;1.00;;;;;;5095407;28;20135;-78
2022/11/15 03:57:17;;;;;;;1999.90;999.90;;;12.00;99.90;;;;;;5094279;28;20052;-81
2022/11/15 03:59:43;;;;;;;1999.90;999.90;;;12.00;99.90;;;;;;5095253;28;20067;-80
2022/11/15 04:02:09;;;;;;;1999.90;999.90;;;12.00;1.00;;;;;;5093856;28;20190;-79
2022/11/15 04:04:34;;;;;;;1999.90;999.90;;;12.00;99.90;;;;;;5093911;28;20441;-79
2022/11/15 04:07:00;;;;;;;1999.90;999.90;;;12.00;1.00;;;;;;5094892;28;20047;-79
2022/11/15 04:09:26;;;;;;;1999.90;999.90;;;12.00;99.90;;;;;;5094902;28;20484;-79
2022/11/15 04:11:52;;;;;;;1648.97;756.85;;;12.10;99.90;;;;;;5095018;28;20044;-79
2022/11/15 04:14:17;;;;;;;1999.90;999.90;;;12.10;1.00;;;;;;5094250;28;20182;-79
2022/11/15 04:16:43;;;;;;;1999.90;999.90;;;12.10;99.90;;;;;;5093442;28;20081;-79
2022/11/15 04:24:37;;;;;;;1999.90;999.90;;;12.20;99.90;;;;;;5095180;28;20060;-79
2022/11/15 04:27:03;;;;;;;1999.90;999.90;;;12.20;1.00;;;;;;5094657;28;20036;-79
2022/11/15 04:29:34;;;;;;;1999.90;999.90;;;12.20;99.90;;;;;;5094549;28;20400;-82
2022/11/15 04:32:04;;;;;;;1999.90;999.90;;;12.20;99.90;;;;;;5093122;28;20044;-79
2022/11/15 04:34:30;;;;;;;1999.90;999.90;;;12.20;99.90;;;;;;5093763;28;20080;-79
2022/11/15 04:37:11;;;;;;;1999.90;999.90;;;12.30;99.90;;;;;;5110768;28;20102;-79
2022/11/15 04:39:37;;;;;;;1999.90;999.90;;;12.30;99.90;;;;;;5093491;28;20044;-81
2022/11/15 04:42:03;;;;;;;1999.90;999.90;;;12.90;99.90;;;;;;5093603;28;20071;-79
2022/11/15 04:44:28;;;;;;;1999.90;999.90;;;12.40;99.90;;;;;;5093572;28;20491;-79
2022/11/15 04:46:54;;;;;;;1999.90;999.90;;;12.40;99.90;;;;;;5092509;28;20127;-80
2022/11/15 04:49:20;;;;;;;1602.55;545.88;;;12.40;72.60;;;;;;5094523;28;20102;-79
2022/11/15 04:51:46;;;;;;;1999.90;999.90;;;12.40;99.90;;;;;;5094562;28;20044;-79
2022/11/15 04:54:11;;;;;;;1999.90;999.90;;;14.90;99.90;;;;;;5093085;28;20427;-79
2022/11/15 04:56:37;;;;;;;1999.90;999.90;;;12.50;99.90;;;;;;5093673;28;20384;-79
2022/11/15 04:59:03;;;;;;;1999.90;999.90;;;13.80;99.90;;;;;;5093858;28;20047;-79
2022/11/15 05:01:28;;;;;;;1999.90;999.90;;;12.60;99.90;;;;;;5093751;28;20399;-79
2022/11/15 05:06:38;;;;;;;1999.90;999.90;;;11.50;99.90;;;;;;5109516;28;20052;-79
2022/11/15 05:09:04;;;;;;;1830.65;762.35;;;13.50;99.90;;;;;;5093939;28;20392;-80
2022/11/15 05:11:30;;;;;;;1999.90;999.90;;;12.70;99.90;;;;;;5094069;28;20040;-79
2022/11/15 05:13:55;;;;;;;1999.90;999.90;;;12.70;99.90;;;;;;5094035;28;20064;-83
2022/11/15 05:16:21;;;;;;;1999.90;999.90;;;12.70;99.90;;;;;;5094275;28;20036;-79
2022/11/15 05:18:50;;;;;;;1999.90;999.90;;;12.80;99.90;;;;;;5110380;28;20135;-79
2022/11/15 05:21:15;;;;;;;1999.90;999.90;;;14.10;6.90;;;;;;5093300;28;20059;-80
2022/11/15 05:23:41;;;;;;;1222.93;115.97;;;12.90;99.90;;;;;;5092708;28;20040;-81
2022/11/15 05:26:08;;;;;;;1859.60;787.40;;;12.90;1.00;;;;;;5093548;28;20036;-80
2022/11/15 05:28:34;;;;;;;1560.20;114.47;;;12.90;99.90;;;;;;5092361;28;20131;-79
2022/11/15 05:31:05;;;;;;;1275.35;513.67;;;13.00;99.90;;;;;;5092822;28;20131;-84
2022/11/15 05:33:33;;;;;;;1999.90;999.90;;;13.00;99.90;;;;;;5094023;28;20050;-82
2022/11/15 05:36:09;;;;;;;1999.90;410.65;;;13.00;99.90;;;;;;5092265;28;20048;-84
2022/11/15 05:38:35;;;;;;;1956.28;812.08;;;13.10;99.90;;;;;;5092887;28;20442;-82
2022/11/15 05:41:02;;;;;;;1999.90;999.90;;;13.10;99.90;;;;;;5091097;28;20048;-83
2022/11/15 05:43:30;;;;;;;1999.90;999.90;;;13.10;1.00;;;;;;5076226;28;20095;-83
2022/11/15 05:45:57;;;;;;;1999.90;999.90;;;14.40;1.00;;;;;;5093076;28;20065;-83
2022/11/15 05:48:23;;;;;;;1507.93;412.27;;;13.50;99.90;;;;;;5091419;28;20067;-82
2022/11/15 05:50:49;;;;;;;1768.25;781.90;;;13.20;1.00;;;;;;5093114;28;20052;-82
2022/11/15 05:53:19;;;;;;;1999.90;999.90;;;13.40;1.00;;;;;;5092210;28;20054;-83
2022/11/15 05:55:45;;;;;;;1999.90;999.90;;;13.30;95.10;;;;;;5091849;28;20503;-82
2022/11/15 05:58:11;;;;;;;1835.97;766.95;;;13.30;1.00;;;;;;5091734;28;20040;-83
2022/11/15 06:00:37;;;;;;;1809.20;777.88;;;13.40;1.00;;;;;;5093036;28;20051;-83
2022/11/15 06:03:02;;;;;;;1999.90;999.90;;;13.50;99.90;;;;;;5091963;28;20051;-84
2022/11/15 06:05:28;;;;;;;1999.90;999.90;;;13.50;37.00;;;;;;5092340;28;20091;-84
2022/11/15 06:07:58;;;;;;;1999.90;999.90;;;13.50;1.00;;;;;;5092360;28;20119;-83
2022/11/15 06:10:24;;;;;;;1999.90;999.90;;;13.50;51.30;;;;;;5091617;28;20097;-83
2022/11/15 06:13:06;;;;;;;1999.90;999.90;;;13.60;94.50;;;;;;5092213;28;20039;-82
2022/11/15 06:15:34;;;;;;;1999.90;999.90;;;13.60;96.20;;;;;;5092148;28;20457;-82
2022/11/15 06:18:00;;;;;;;1999.90;999.90;;;13.70;1.00;;;;;;5092124;28;20473;-84
2022/11/15 06:20:28;;;;;;;1635.72;754.92;;;13.70;3.00;;;;;;5091558;28;20055;-84
2022/11/15 06:23:01;;;;;;;1708.28;347.42;;;13.60;99.90;;;;;;5091480;28;20048;-82
2022/11/15 06:25:28;;;;;;;1813.85;791.60;;;13.80;95.50;;;;;;5091833;28;20101;-85
2022/11/15 06:27:55;;;;;;;1432.82;529.67;;;13.80;99.90;;;;;;5092333;28;20407;-83
2022/11/15 06:30:22;;;;;;;1317.80;334.45;;;13.80;99.90;;;;;;5091845;28;20048;-84
2022/11/15 06:32:48;;;;;;;1999.90;999.90;;;13.80;99.90;;;;;;5074945;28;20126;-83
2022/11/15 06:35:14;;;;;;;1999.90;999.90;;;13.90;99.90;;;;;;5092536;28;20090;-84
2022/11/15 06:37:40;;;;;;;1999.90;999.90;;;13.90;99.90;;;;;;5075195;28;20052;-83
2022/11/15 06:40:07;;;;;;;1999.90;999.90;;;14.90;99.90;;;;;;5091048;28;20048;-85
2022/11/15 06:42:33;;;;;;;1944.78;401.65;;;14.00;1.00;;;;;;5091726;28;20040;-84
2022/11/15 06:44:59;;;;;;;1999.90;999.90;;;14.10;1.00;;;;;;5075033;28;20062;-83
2022/11/15 06:47:25;;;;;;;1611.88;755.78;;;14.00;1.00;;;;;;5090436;28;20044;-83
2022/11/15 06:49:51;;;;;;;1999.90;999.90;;;14.00;1.00;;;;;;5091398;28;20507;-83
2022/11/15 06:52:18;;;;;;;1595.15;755.35;;;14.10;1.00;;;;;;5108390;28;20435;-84
2022/11/15 06:54:45;;;;;;;1999.90;999.90;;;14.10;1.00;;;;;;5090745;28;20044;-84
2022/11/15 06:57:11;;;;;;;1999.90;999.90;;;14.00;1.00;;;;;;5090414;28;20048;-84
2022/11/15 06:59:37;;;;;;;1999.90;999.90;;;15.30;1.00;;;;;;5073888;28;20040;-82
2022/11/15 07:02:03;;;;;;;1999.90;999.90;;;14.10;1.00;;;;;;5091312;28;20067;-81
2022/11/15 07:04:28;;;;;;;1999.90;999.90;;;14.10;12.00;;;;;;5091607;28;20054;-81
2022/11/15 07:06:54;;;;;;;1999.90;999.90;;;14.10;13.20;;;;;;5090914;28;20288;-83
2022/11/15 07:09:20;;;;;;;1999.90;999.90;;;14.20;90.90;;;;;;5107240;28;20442;-84
2022/11/15 07:11:46;;;;;;;1999.90;999.90;;;14.20;56.60;;;;;;5090733;28;20127;-86
2022/11/15 07:14:11;;;;;;;1999.90;999.90;;;14.20;58.30;;;;;;5090173;28;20048;-85
2022/11/15 07:16:37;;;;;;;1999.90;999.90;;;14.30;99.90;;;;;;5091323;28;20043;-83
2022/11/15 07:19:03;;;;;;;1999.90;999.90;;;14.30;99.90;;;;;;5090688;28;20074;-85
2022/11/15 07:21:29;;;;;;;1999.90;999.90;;;;;;;;;;5090688;28;20091;-85
2022/11/15 07:23:55;;;;;;;972.35;50.85;;;14.30;99.90;;;;;;5090754;28;20545;-84
2022/11/15 07:26:21;;;;;;;1999.90;999.90;;;14.30;99.90;;;;;;5073892;28;20520;-85
2022/11/15 07:28:49;;;;;;;1999.90;999.90;;;15.10;99.90;;;;;;5091198;28;20130;-85
2022/11/15 07:31:14;;;;;;;1999.90;999.90;;;14.70;99.90;;;;;;5090387;28;20453;-81
2022/11/15 07:33:40;;;;;;;1999.90;999.90;;;;;;;;;;5091203;28;20131;-81
2022/11/15 07:36:08;;;;;;;1999.90;999.90;;;14.40;99.90;;;;;;5091149;28;20048;-84
2022/11/15 07:38:35;;;;;;;1999.90;999.90;;;14.60;99.90;;;;;;5091292;28;20089;-84
2022/11/15 07:41:03;;;;;;;1999.90;999.90;;;14.40;99.90;;;;;;5092261;28;20480;-84
2022/11/15 07:43:29;;;;;;;1999.90;999.90;;;14.50;99.90;;;;;;5091552;28;20063;-83
2022/11/15 07:45:56;;;;;;;1999.90;999.90;;;14.50;99.90;;;;;;5090830;28;20476;-85
2022/11/15 07:48:22;;;;;;;1999.90;999.90;;;14.70;99.90;;;;;;5090824;28;20040;-84
2022/11/15 07:50:48;;;;;;;1999.90;999.90;;;14.60;99.90;;;;;;5091611;28;20400;-84
2022/11/15 07:53:14;;;;;;;1999.90;999.90;;;14.70;99.90;;;;;;5091355;28;20044;-84
2022/11/15 07:55:41;;;;;;;1999.90;999.90;;;13.80;99.90;;;;;;5090442;28;20055;-85
2022/11/15 07:58:10;;;;;;;1999.90;999.90;;;14.70;99.90;;;;;;5091342;28;20083;-84
2022/11/15 08:00:36;;;;;;;1999.90;999.90;;;14.60;1.00;;;;;;5091101;28;20094;-85
2022/11/15 08:03:10;;;;;;;1999.90;999.90;;;14.90;1.00;;;;;;5090428;28;20051;-84
2022/11/15 08:05:37;;;;;;;1999.90;999.90;;;14.70;1.00;;;;;;5069471;28;20122;-85
2022/11/15 08:08:04;;;;;;;1999.90;999.90;;;14.80;1.00;;;;;;5089913;28;20075;-84
2022/11/15 08:10:30;;;;;;;1999.90;999.90;;;14.70;1.00;;;;;;5105245;28;20054;-84
2022/11/15 08:13:07;;;;;;;1999.90;999.90;;;14.80;1.00;;;;;;5094096;28;20040;-83
2022/11/15 08:15:34;;;;;;;1999.90;999.90;;;14.80;1.00;;;;;;5110445;28;20369;-83
2022/11/15 08:18:02;;;;;;;1999.90;999.90;;;14.90;1.00;;;;;;5093880;28;20480;-84
2022/11/15 08:20:29;;;;;;;1999.90;999.90;;;13.40;1.00;;;;;;5094217;28;20047;-83
2022/11/15 08:22:59;;;;;;;1999.90;999.90;;;14.90;1.00;;;;;;5094945;28;20083;-84
2022/11/15 08:25:26;;;;;;;1999.90;999.90;;;15.00;1.00;;;;;;5093451;28;20586;-83
2022/11/15 08:27:57;;;;;;;1999.90;999.90;;;15.00;1.00;;;;;;5077459;28;20373;-84
2022/11/15 08:30:23;;;;;;;1999.90;999.90;;;15.00;1.00;;;;;;5095414;28;20063;-84
2022/11/15 08:32:50;;;;;;;1999.90;999.90;;;15.00;1.00;;;;;;5094975;28;20127;-84
2022/11/15 08:35:17;;;;;;;1999.90;999.90;;;15.10;1.00;;;;;;5094735;28;20059;-83
2022/11/15 08:37:43;;;;;;;1999.90;999.90;;;15.10;1.00;;;;;;5110933;28;20157;-84
2022/11/15 08:40:10;;;;;;;1999.90;999.90;;;15.10;1.00;;;;;;5094596;28;20555;-84
2022/11/15 08:42:36;;;;;;;1999.90;999.90;;;15.10;99.90;;;;;;5095659;28;20044;-83
2022/11/15 08:45:03;;;;;;;1999.90;999.90;;;15.10;1.00;;;;;;5095575;28;20044;-83
2022/11/15 08:47:29;;;;;;;1999.90;999.90;;;15.20;99.90;;;;;;5095195;28;20066;-83
2022/11/15 08:49:55;;;;;;;1999.90;999.90;;;15.20;99.90;;;;;;5094941;28;20212;-84
2022/11/15 08:52:20;;;;;;;1999.90;999.90;;;15.20;99.90;;;;;;5094769;28;20130;-84
2022/11/15 08:54:46;;;;;;;1999.90;999.90;;;15.20;99.90;;;;;;5093676;28;20051;-84
2022/11/15 08:57:12;;;;;;;1999.90;999.90;;;15.30;99.90;;;;;;5094094;28;20083;-83
2022/11/15 08:59:38;;;;;;;1999.90;999.90;;;15.30;99.90;;;;;;5093664;28;20052;-86
2022/11/15 09:02:05;;;;;;;1999.90;999.90;;;15.30;99.90;;;;;;5076976;28;20476;-83
2022/11/15 09:04:31;;;;;;;1999.90;999.90;;;15.30;99.90;;;;;;5093369;28;20043;-87
2022/11/15 09:06:57;;;;;;;1999.90;999.90;;;15.20;1.00;;;;;;5093116;28;20052;-83
2022/11/15 09:09:22;;;;;;;1999.90;999.90;;;15.30;1.00;;;;;;5093381;28;20138;-83
2022/11/15 09:11:48;;;;;;;1999.90;999.90;;;15.40;1.00;;;;;;5093403;28;20044;-83
2022/11/15 09:14:14;;;;;;;1999.90;999.90;;;15.40;99.90;;;;;;5094680;28;20109;-83
2022/11/15 09:16:40;;;;;;;1999.90;999.90;;;15.50;99.90;;;;;;5092624;28;20056;-83
2022/11/15 09:19:06;;;;;;;1999.90;999.90;;;15.40;99.90;;;;;;5093488;28;20387;-83
2022/11/15 09:21:32;;;;;;;1999.90;999.90;;;15.50;99.90;;;;;;5092862;28;20051;-84
2022/11/15 09:23:58;;;;;;;1999.90;999.90;;;15.40;99.90;;;;;;5092549;28;20075;-84
2022/11/15 09:26:24;;;;;;;1999.90;999.90;;;15.50;26.80;;;;;;5092865;28;20047;-83
2022/11/15 09:28:50;;;;;;;1999.90;999.90;;;15.50;1.00;;;;;;5092895;28;20051;-83
2022/11/15 09:31:16;;;;;;;1999.90;999.90;;;15.60;1.00;;;;;;5092492;28;20040;-84
2022/11/15 09:33:45;;;;;;;1999.90;999.90;;;15.60;99.90;;;;;;5092699;28;20109;-84
2022/11/15 09:36:12;;;;;;;1999.90;999.90;;;15.60;99.90;;;;;;5076334;28;20052;-83
2022/11/15 09:38:38;;;;;;;1999.90;999.90;;;15.70;99.90;;;;;;5092875;28;20048;-83
2022/11/15 09:41:20;;;;;;;1999.90;999.90;;;15.70;99.90;;;;;;5092899;28;20067;-83
2022/11/15 09:44:19;;;;;;;1999.90;999.90;;;15.70;53.30;;;;;;5092784;28;20395;-83
2022/11/15 09:47:20;;;;;;;1999.90;999.90;;;15.70;1.00;;;;;;5092211;28;20070;-84
2022/11/15 09:49:50;;;;;;;1999.90;999.90;;;15.70;99.90;;;;;;5091978;28;20048;-84
2022/11/15 09:52:18;;;;;;;1999.90;999.90;;;15.80;99.90;;;;;;5092728;28;20052;-80
2022/11/15 09:54:48;;;;;;;1999.90;999.90;;;15.70;99.90;;;;;;5092719;28;20047;-81
2022/11/15 09:57:18;;;;;;;1999.90;999.90;;;15.70;99.90;;;;;;5075850;28;20044;-80
2022/11/15 10:00:11;;;;;;;1999.90;999.90;;;15.80;99.90;;;;;;5075423;28;20484;-81
2022/11/15 10:02:40;;;;;;;1999.90;999.90;;;15.80;99.90;;;;;;5092331;28;20056;-82
2022/11/15 10:05:11;;;;;;;1999.90;999.90;;;15.80;99.90;;;;;;5092824;28;20143;-81
2022/11/15 10:07:42;;;;;;;1999.90;999.90;;;15.90;93.20;;;;;;5091608;28;20110;-83
2022/11/15 10:10:14;;;;;;;1999.90;999.90;;;15.90;1.00;;;;;;5091966;28;20104;-82
2022/11/15 10:12:45;;;;;;;1999.90;999.90;;;15.90;1.00;;;;;;5091958;28;20144;-82
2022/11/15 10:15:22;;;;;;;1999.90;999.90;;;14.80;1.00;;;;;;5075836;28;20143;-82
2022/11/15 10:18:08;;;;;;;1999.90;999.90;;;16.40;99.90;;;;;;5091731;28;20456;-82
2022/11/15 10:20:53;;;;;;;1999.90;999.90;;;15.90;1.00;;;;;;5092928;28;20112;-82
2022/11/15 10:23:21;;;;;;;1999.90;999.90;;;16.00;99.90;;;;;;5092396;28;20047;-82
2022/11/15 10:25:50;;;;;;;1999.90;999.90;;;17.30;99.90;;;;;;5093107;28;20051;-82
2022/11/15 10:28:21;;;;;;;1999.90;999.90;;;16.00;99.90;;;;;;5075225;28;20044;-83
2022/11/15 10:30:52;;;;;;;1999.90;999.90;;;16.00;99.90;;;;;;5091380;28;20556;-86
2022/11/15 10:33:35;;;;;;;1999.90;999.90;;;15.90;1.00;;;;;;5092415;28;20131;-86
2022/11/15 10:36:09;;;;;;;1999.90;999.90;;;15.80;1.00;;;;;;5075276;28;20048;-84
2022/11/15 10:38:55;;;;;;;1999.90;999.90;;;15.80;1.00;;;;;;5091873;28;20052;-85
2022/11/15 10:41:29;;;;;;;1999.90;999.90;;;15.90;54.90;;;;;;5091611;28;20444;-85
2022/11/15 10:44:06;;;;;;;1999.90;999.90;;;15.30;99.90;;;;;;5091989;28;20052;-84
2022/11/15 10:46:33;;;;;;;1999.90;999.90;;;14.70;99.90;;;;;;5091905;28;20044;-84
2022/11/15 10:49:28;;;;;;;1999.90;999.90;;;14.80;99.90;;;;;;5074840;28;20465;-84
2022/11/15 10:51:54;;;;;;;1999.90;999.90;;;15.90;99.90;;;;;;5091226;28;20605;-84
2022/11/15 10:54:29;;;;;;;1999.90;999.90;;;15.90;99.90;;;;;;5091492;28;20051;-84
2022/11/15 10:57:01;;;;;;;1999.90;999.90;;;16.10;99.90;;;;;;5091844;28;20484;-84
2022/11/15 10:59:31;;;;;;;1999.90;999.90;;;14.60;99.90;;;;;;5092819;28;20040;-84
2022/11/15 11:01:57;;;;;;;1999.90;999.90;;;16.10;99.90;;;;;;5091006;28;20052;-84
2022/11/15 11:04:23;;;;;;;1999.90;999.90;;;16.20;99.90;;;;;;5074397;28;20105;-85
2022/11/15 11:06:52;;;;;;;1999.90;999.90;;;16.30;99.90;;;;;;5091127;28;20047;-84
2022/11/15 11:09:36;;;;;;;1999.90;999.90;;;16.60;99.90;;;;;;5092414;28;20225;-84
2022/11/15 11:12:04;;;;;;;1999.90;999.90;;;16.50;99.90;;;;;;5092073;28;20040;-86
2022/11/15 11:14:32;;;;;;;1999.90;999.90;;;16.70;1.00;;;;;;5091018;28;20471;-84
2022/11/15 11:17:10;;;;;;;1999.90;999.90;;;16.60;99.90;;;;;;5090533;28;20484;-84
2022/11/15 11:19:58;;;;;;;1999.90;999.90;;;16.50;99.90;;;;;;5091279;28;20048;-84
2022/11/15 11:22:50;;;;;;;1999.90;999.90;;;16.40;99.90;;;;;;5091568;28;20138;-84
2022/11/15 11:25:39;;;;;;;1999.90;999.90;;;16.40;99.90;;;;;;5090747;28;20040;-84
2022/11/15 11:28:24;;;;;;;1999.90;999.90;;;16.40;99.90;;;;;;5090698;28;20127;-85
2022/11/15 11:31:01;;;;;;;1999.90;999.90;;;16.20;99.90;;;;;;5073962;28;20052;-85
2022/11/15 11:33:42;;;;;;;1999.90;999.90;;;16.10;99.90;;;;;;5091188;28;20396;-83
2022/11/15 11:36:20;;;;;;;1999.90;999.90;;;16.20;99.90;;;;;;5091410;28;20487;-84
2022/11/15 11:38:58;;;;;;;1999.90;999.90;;;16.20;99.90;;;;;;5091297;28;20493;-84
2022/11/15 11:41:43;;;;;;;1999.90;999.90;;;16.20;99.90;;;;;;5091044;28;20125;-84
2022/11/15 11:44:36;;;;;;;1999.90;999.90;;;16.20;99.90;;;;;;5091763;28;20071;-83
2022/11/15 11:47:36;;;;;;;1999.90;999.90;;;16.30;99.90;;;;;;5093105;28;20044;-84
2022/11/15 11:50:17;;;;;;;1999.90;999.90;;;16.20;99.90;;;;;;5080707;28;20064;-81
2022/11/15 11:53:08;;;;;;;1999.90;999.90;;;16.20;1.00;;;;;;5094727;28;20048;-81
2022/11/15 11:55:47;;;;;;;1999.90;999.90;;;16.10;1.00;;;;;;5095020;28;20044;-80
2022/11/15 11:58:20;;;;;;;1999.90;999.90;;;16.00;99.90;;;;;;5095476;28;20115;-81
2022/11/15 12:00:51;;;;;;;1999.90;999.90;;;15.90;99.90;;;;;;5094595;28;20127;-82
2022/11/15 12:03:59;;;;;;;1999.90;999.90;;;15.90;99.90;;;;;;5095042;28;20052;-84
2022/11/15 12:06:35;;;;;;;1999.90;999.90;;;16.00;50.70;;;;;;5047109;28;20047;-83
2022/11/15 12:09:17;;;;;;;1999.90;999.90;;;16.20;1.00;;;;;;5094650;28;20408;-84
2022/11/15 12:12:10;;;;;;;1999.90;999.90;;;16.10;99.90;;;;;;5094534;28;20127;-84
2022/11/15 12:14:40;;;;;;;1999.90;999.90;;;16.00;99.90;;;;;;5094552;28;20480;-84
2022/11/15 12:17:09;;;;;;;1999.90;999.90;;;15.90;99.90;;;;;;5094518;28;20052;-83
2022/11/15 12:19:36;;;;;;;1999.90;999.90;;;15.90;99.90;;;;;;5094754;28;20609;-83
2022/11/15 12:22:39;;;;;;;1999.90;999.90;;;15.90;99.90;;;;;;5094380;28;20048;-83
2022/11/15 12:25:16;;;;;;;1999.90;999.90;;;15.90;77.00;;;;;;5094086;28;20563;-81
2022/11/15 12:27:55;;;;;;;1999.90;999.90;;;15.90;1.00;;;;;;5093790;28;20040;-82
2022/11/15 12:30:25;;;;;;;1999.90;999.90;;;15.90;1.00;;;;;;5077729;28;20051;-81
2022/11/15 12:33:01;;;;;;;1999.90;999.90;;;15.90;1.00;;;;;;5093946;28;20048;-82